createdAt,value
2022-11-10T00:08:18.960Z,9.35
2022-11-10T00:18:46.470Z,9.30
2022-11-10T00:29:13.788Z,9.19
2022-11-10T00:39:41.032Z,9.13
2022-11-10T00:50:09.900Z,9.12
2022-11-10T01:00:37.455Z,9.14
2022-11-10T01:11:09.119Z,9.15
2022-11-10T01:21:36.347Z,9.16
2022-11-10T01:32:03.622Z,9.12
2022-11-10T01:42:45.372Z,9.15
2022-11-10T01:53:18.174Z,9.18
2022-11-10T02:03:50.363Z,9.15
2022-11-10T02:14:18.494Z,9.19
2022-11-10T02:24:45.858Z,9.25
2022-11-10T02:35:13.102Z,9.21
2022-11-10T02:45:42.307Z,9.14
2022-11-10T02:56:10.647Z,9.12
2022-11-10T03:06:37.983Z,9.12
2022-11-10T03:17:05.336Z,9.13
2022-11-10T03:27:32.674Z,9.17
2022-11-10T03:38:00.145Z,9.18
2022-11-10T03:48:27.392Z,9.22
2022-11-10T03:58:54.597Z,9.26
2022-11-10T04:09:21.881Z,9.23
2022-11-10T04:19:49.200Z,9.42
2022-11-10T04:30:16.882Z,9.48
2022-11-10T04:40:44.209Z,9.50
2022-11-10T04:51:12.698Z,9.58
2022-11-10T05:01:40.090Z,9.54
2022-11-10T05:12:07.630Z,9.56
2022-11-10T05:22:35.359Z,9.59
2022-11-10T05:33:03.049Z,9.59
2022-11-10T05:43:30.425Z,9.60
2022-11-10T05:53:57.931Z,9.65
2022-11-10T06:04:25.552Z,9.72
2022-11-10T06:14:53.007Z,9.74
2022-11-10T06:25:20.449Z,9.72
2022-11-10T06:35:47.800Z,9.69
2022-11-10T06:46:15.040Z,9.61
2022-11-10T06:56:42.325Z,9.64
2022-11-10T07:07:10.071Z,9.72
2022-11-10T07:17:41.977Z,9.74
2022-11-10T07:28:11.519Z,9.77
2022-11-10T07:38:38.857Z,9.94
2022-11-10T07:49:06.252Z,9.87
2022-11-10T07:59:33.601Z,9.86
2022-11-10T08:10:00.917Z,9.96
2022-11-10T08:20:28.295Z,10.01
2022-11-10T08:30:56.056Z,10.06
2022-11-10T08:41:23.548Z,10.10
2022-11-10T08:51:50.907Z,10.10
2022-11-10T09:02:18.248Z,10.17
2022-11-10T09:12:45.592Z,10.19
2022-11-10T09:23:15.415Z,10.31
2022-11-10T09:33:42.796Z,10.41
2022-11-10T09:44:17.779Z,10.39
2022-11-10T09:54:50.311Z,10.53
2022-11-10T10:05:36.077Z,10.56
2022-11-10T10:16:13.080Z,10.47
2022-11-10T10:26:43.451Z,10.49
2022-11-10T10:37:23.925Z,10.60
2022-11-10T10:47:52.706Z,10.80
2022-11-10T10:58:26.616Z,10.83
2022-11-10T11:09:00.478Z,10.90
2022-11-10T11:19:31.810Z,10.98
2022-11-10T11:30:13.284Z,11.06
2022-11-10T11:40:49.642Z,11.20
2022-11-10T11:51:23.679Z,11.35
2022-11-10T12:02:11.555Z,11.49
2022-11-10T12:12:59.260Z,11.64
2022-11-10T12:23:37.114Z,11.71
2022-11-10T12:34:11.649Z,11.77
2022-11-10T12:44:44.586Z,11.82
2022-11-10T12:55:15.888Z,11.90
2022-11-10T13:05:45.569Z,11.97
2022-11-10T13:16:33.232Z,12.03
2022-11-10T13:27:02.090Z,11.99
2022-11-10T13:37:50.875Z,11.98
2022-11-10T13:48:28.078Z,12.00
2022-11-10T13:58:55.956Z,11.98
2022-11-10T14:09:32.239Z,11.97
2022-11-10T14:20:00.193Z,12.01
2022-11-10T14:30:26.725Z,11.98
2022-11-10T14:40:57.772Z,11.79
2022-11-10T14:51:25.671Z,11.60
2022-11-10T15:01:56.080Z,11.48
2022-11-10T15:12:29.515Z,11.35
2022-11-10T15:22:58.365Z,11.28
2022-11-10T15:33:28.429Z,11.25
2022-11-10T15:43:55.813Z,11.19
2022-11-10T15:54:26.785Z,11.13
2022-11-10T16:04:59.728Z,11.15
2022-11-10T16:15:27.643Z,11.34
2022-11-10T16:25:57.441Z,11.55
2022-11-10T16:36:28.472Z,11.75
2022-11-10T16:46:57.490Z,11.89
2022-11-10T16:57:25.120Z,12.02
2022-11-10T17:07:52.590Z,11.99
2022-11-10T17:18:24.771Z,12.04
2022-11-10T17:28:52.170Z,12.11
2022-11-10T17:39:20.416Z,12.11
2022-11-10T17:49:47.947Z,12.02
2022-11-10T18:00:19.088Z,11.90
2022-11-10T18:10:49.931Z,11.65
2022-11-10T18:21:17.389Z,11.53
2022-11-10T18:31:44.958Z,11.40
2022-11-10T18:42:12.721Z,11.21
2022-11-10T18:52:40.055Z,10.79
2022-11-10T19:03:07.485Z,10.64
2022-11-10T19:13:35.028Z,10.63
2022-11-10T19:24:02.341Z,10.59
2022-11-10T19:34:31.637Z,10.44
2022-11-10T19:44:59.123Z,10.52
2022-11-10T19:55:26.456Z,10.60
2022-11-10T20:06:01.826Z,10.65
2022-11-10T20:16:29.265Z,10.69
2022-11-10T20:26:56.585Z,10.57
2022-11-10T20:37:24.009Z,10.33
2022-11-10T20:47:52.983Z,10.15
2022-11-10T20:58:20.316Z,10.20
2022-11-10T21:08:47.586Z,10.06
2022-11-10T21:19:14.895Z,9.92
2022-11-10T21:29:42.481Z,9.84
2022-11-10T21:40:11.703Z,9.79
2022-11-10T21:50:39.090Z,9.63
2022-11-10T22:01:08.904Z,9.11
2022-11-10T22:11:53.732Z,9.00
2022-11-10T22:22:20.988Z,8.92
2022-11-10T22:32:48.333Z,8.82
2022-11-10T22:43:33.383Z,8.77
2022-11-10T22:54:01.154Z,8.56
2022-11-10T23:04:28.564Z,8.36
2022-11-10T23:14:55.894Z,8.36
2022-11-10T23:25:23.257Z,8.17
2022-11-10T23:35:50.517Z,8.03
2022-11-10T23:46:18.074Z,7.80
2022-11-10T23:56:45.354Z,7.75
